createdAt,value
2017-03-01T00:00:00.394Z,0
2017-03-01T00:01:10.600Z,0
2017-03-01T00:02:19.913Z,0
2017-03-01T00:03:29.671Z,0
2017-03-01T00:04:39.060Z,0
2017-03-01T00:05:48.389Z,0
2017-03-01T00:06:57.694Z,0
2017-03-01T00:08:07.014Z,0
2017-03-01T00:09:16.348Z,0
2017-03-01T00:10:26.154Z,0
2017-03-01T00:11:35.467Z,0
2017-03-01T00:12:45.224Z,0
2017-03-01T00:13:55.001Z,0
2017-03-01T00:15:04.770Z,0
2017-03-01T00:16:14.155Z,0
2017-03-01T00:17:23.480Z,0
2017-03-01T00:18:33.249Z,0
2017-03-01T00:19:43.023Z,0
2017-03-01T00:20:52.352Z,0
2017-03-01T00:22:01.721Z,0
2017-03-01T00:23:11.473Z,0
2017-03-01T00:24:20.799Z,0
2017-03-01T00:25:30.117Z,0
2017-03-01T00:26:39.870Z,0
2017-03-01T00:27:49.250Z,0
2017-03-01T00:28:58.584Z,0
2017-03-01T00:30:08.361Z,0
2017-03-01T00:31:17.722Z,0
2017-03-01T00:32:27.058Z,0
2017-03-01T00:33:36.889Z,0
2017-03-01T00:34:46.206Z,0
2017-03-01T00:35:55.963Z,0
2017-03-01T00:37:05.316Z,0
2017-03-01T00:38:15.522Z,0
2017-03-01T00:39:25.339Z,0
2017-03-01T00:40:35.100Z,0
2017-03-01T00:41:44.408Z,0
2017-03-01T00:42:53.751Z,0
2017-03-01T00:44:03.511Z,0
2017-03-01T00:45:13.316Z,0
2017-03-01T00:46:23.086Z,0
2017-03-01T00:47:32.416Z,0
2017-03-01T00:48:42.196Z,0
2017-03-01T00:49:51.525Z,0
2017-03-01T00:51:00.887Z,0
2017-03-01T00:52:10.208Z,0
2017-03-01T00:53:19.544Z,0
2017-03-01T00:54:29.746Z,0
2017-03-01T00:55:39.067Z,0
2017-03-01T00:56:48.436Z,0
2017-03-01T00:57:57.781Z,0
2017-03-01T00:59:07.090Z,0
2017-03-01T01:00:16.408Z,0
2017-03-01T01:01:26.168Z,0
2017-03-01T01:02:36.622Z,0
2017-03-01T01:03:46.412Z,0
2017-03-01T01:04:56.177Z,0
2017-03-01T01:06:05.494Z,0
2017-03-01T01:07:15.683Z,0
2017-03-01T01:08:26.044Z,0
2017-03-01T01:09:35.385Z,0
2017-03-01T01:10:44.702Z,0
2017-03-01T01:11:54.039Z,0
2017-03-01T01:13:03.373Z,0
2017-03-01T01:14:12.746Z,0
2017-03-01T01:15:22.091Z,0
2017-03-01T01:16:31.407Z,0
2017-03-01T01:17:40.745Z,0
2017-03-01T01:18:50.054Z,0
2017-03-01T01:19:59.875Z,0
2017-03-01T01:21:09.633Z,0
2017-03-01T01:22:18.942Z,0
2017-03-01T01:23:28.275Z,0
2017-03-01T01:24:38.061Z,0
2017-03-01T01:25:47.436Z,0
2017-03-01T01:26:56.763Z,0
2017-03-01T01:28:06.100Z,0
2017-03-01T01:29:15.889Z,0
2017-03-01T01:30:25.214Z,0
2017-03-01T01:31:34.599Z,0
2017-03-01T01:32:43.927Z,0
2017-03-01T01:33:53.250Z,0
2017-03-01T01:35:02.567Z,0
2017-03-01T01:36:11.880Z,0
2017-03-01T01:37:21.276Z,0
2017-03-01T01:38:30.598Z,0
2017-03-01T01:39:40.367Z,0
2017-03-01T01:40:49.677Z,0
2017-03-01T01:41:58.982Z,0
2017-03-01T01:43:08.519Z,0
2017-03-01T01:44:17.892Z,0
2017-03-01T01:45:27.218Z,0
2017-03-01T01:46:36.986Z,0
2017-03-01T01:47:47.182Z,0
2017-03-01T01:48:57.893Z,0
2017-03-01T01:50:07.246Z,0
2017-03-01T01:51:16.568Z,0
2017-03-01T01:52:25.893Z,0
2017-03-01T01:53:35.242Z,0
2017-03-01T01:54:44.606Z,0
2017-03-01T01:55:54.391Z,0
2017-03-01T01:57:04.164Z,0
2017-03-01T01:58:13.922Z,0
2017-03-01T01:59:24.555Z,0
2017-03-01T02:00:33.945Z,0
2017-03-01T02:01:43.254Z,0
2017-03-01T02:02:52.570Z,0
2017-03-01T02:04:01.888Z,0
2017-03-01T02:05:11.253Z,0
2017-03-01T02:06:21.063Z,0
2017-03-01T02:07:30.812Z,0
2017-03-01T02:08:40.136Z,0
2017-03-01T02:09:49.470Z,0
2017-03-01T02:10:58.811Z,0
2017-03-01T02:12:08.177Z,0
2017-03-01T02:13:17.496Z,0
2017-03-01T02:14:27.263Z,0
2017-03-01T02:15:36.598Z,0
2017-03-01T02:16:46.352Z,0
2017-03-01T02:17:55.883Z,0
2017-03-01T02:19:05.224Z,0
2017-03-01T02:20:15.451Z,0
2017-03-01T02:21:31.518Z,0
2017-03-01T02:22:41.267Z,0
2017-03-01T02:23:51.964Z,0
2017-03-01T02:25:02.152Z,0
2017-03-01T02:26:12.783Z,0
2017-03-01T02:27:22.966Z,0
2017-03-01T02:28:33.151Z,0
2017-03-01T02:29:43.854Z,0
2017-03-01T02:30:53.170Z,0
2017-03-01T02:32:02.939Z,0
2017-03-01T02:33:13.126Z,0
2017-03-01T02:34:22.882Z,0
2017-03-01T02:35:33.550Z,0
2017-03-01T02:36:43.777Z,0
2017-03-01T02:37:54.415Z,0
2017-03-01T02:39:04.592Z,0
2017-03-01T02:40:14.347Z,0
2017-03-01T02:41:25.030Z,0
2017-03-01T02:42:35.207Z,0
2017-03-01T02:43:45.843Z,0
2017-03-01T02:44:56.036Z,0
2017-03-01T02:46:06.229Z,0
2017-03-01T02:47:16.899Z,0
2017-03-01T02:48:26.675Z,0
2017-03-01T02:49:36.849Z,0
2017-03-01T02:50:46.586Z,0
2017-03-01T02:51:56.783Z,0
2017-03-01T02:53:07.475Z,0
2017-03-01T02:54:17.226Z,0
2017-03-01T02:55:27.016Z,0
2017-03-01T02:56:37.636Z,0
2017-03-01T02:57:48.694Z,0
2017-03-01T02:58:58.506Z,0
2017-03-01T03:00:09.587Z,0
2017-03-01T03:01:20.214Z,0
2017-03-01T03:02:29.963Z,0
2017-03-01T03:03:39.263Z,0
2017-03-01T03:04:49.078Z,0
2017-03-01T03:05:59.687Z,0
2017-03-01T03:07:09.874Z,0
2017-03-01T03:08:19.619Z,0
2017-03-01T03:09:29.814Z,0
2017-03-01T03:10:39.165Z,0
2017-03-01T03:11:50.269Z,0
2017-03-01T03:13:00.476Z,0
2017-03-01T03:14:11.121Z,0
2017-03-01T03:15:20.424Z,0
2017-03-01T03:16:30.224Z,0
2017-03-01T03:17:39.529Z,0
2017-03-01T03:18:49.278Z,0
2017-03-01T03:19:59.904Z,0
2017-03-01T03:21:09.674Z,0
2017-03-01T03:22:19.046Z,0
2017-03-01T03:23:28.373Z,0
2017-03-01T03:24:38.128Z,0
2017-03-01T03:25:48.766Z,0
2017-03-01T03:26:58.526Z,0
2017-03-01T03:28:08.769Z,0
2017-03-01T03:29:18.975Z,0
2017-03-01T03:30:29.146Z,0
2017-03-01T03:31:39.372Z,0
2017-03-01T03:32:49.122Z,0
2017-03-01T03:33:58.963Z,0
2017-03-01T03:35:08.707Z,0
2017-03-01T03:36:18.897Z,0
2017-03-01T03:37:29.070Z,0
2017-03-01T03:38:39.239Z,0
2017-03-01T03:39:49.073Z,0
2017-03-01T03:40:58.813Z,0
2017-03-01T03:42:09.026Z,0
2017-03-01T03:43:19.211Z,0
2017-03-01T03:44:29.845Z,0
2017-03-01T03:45:39.246Z,0
2017-03-01T03:46:49.000Z,0
2017-03-01T03:47:58.749Z,0
2017-03-01T03:49:08.945Z,0
2017-03-01T03:50:19.175Z,0
2017-03-01T03:51:28.988Z,0
2017-03-01T03:52:39.618Z,0
2017-03-01T03:53:49.796Z,0
2017-03-01T03:55:00.008Z,0
2017-03-01T03:56:09.777Z,0
2017-03-01T03:57:19.569Z,0
2017-03-01T03:58:29.790Z,0
2017-03-01T03:59:39.533Z,0
2017-03-01T04:00:48.833Z,0
2017-03-01T04:01:58.150Z,0
2017-03-01T04:03:07.957Z,0
2017-03-01T04:04:17.726Z,0
2017-03-01T04:05:27.925Z,0
2017-03-01T04:06:38.574Z,0
2017-03-01T04:07:48.316Z,0
2017-03-01T04:08:59.442Z,0
2017-03-01T04:10:09.188Z,0
2017-03-01T04:11:18.957Z,0
2017-03-01T04:12:28.704Z,0
2017-03-01T04:13:38.900Z,0
2017-03-01T04:14:49.125Z,0
2017-03-01T04:15:58.886Z,0
2017-03-01T04:17:09.072Z,0
2017-03-01T04:18:18.399Z,0
2017-03-01T04:19:28.596Z,0
2017-03-01T04:20:38.835Z,0
2017-03-01T04:21:49.008Z,0
2017-03-01T04:22:58.377Z,0
2017-03-01T04:24:08.582Z,0
2017-03-01T04:25:18.344Z,0
2017-03-01T04:26:28.588Z,0
2017-03-01T04:27:38.773Z,0
2017-03-01T04:28:48.089Z,0
2017-03-01T04:29:58.276Z,0
2017-03-01T04:31:08.044Z,0
2017-03-01T04:32:19.142Z,0
2017-03-01T04:33:29.763Z,0
2017-03-01T04:34:39.952Z,0
2017-03-01T04:35:49.709Z,0
2017-03-01T04:36:59.891Z,0
2017-03-01T04:38:10.124Z,0
2017-03-01T04:39:20.341Z,0
2017-03-01T04:40:30.550Z,0
2017-03-01T04:41:41.167Z,0
2017-03-01T04:42:51.343Z,0
2017-03-01T04:44:01.142Z,0
2017-03-01T04:45:11.331Z,0
2017-03-01T04:46:21.527Z,0
2017-03-01T04:47:31.705Z,0
2017-03-01T04:48:42.330Z,0
2017-03-01T04:49:52.111Z,0
2017-03-01T04:51:01.871Z,0
2017-03-01T04:52:12.506Z,0
2017-03-01T04:53:23.115Z,0
2017-03-01T04:54:33.296Z,0
2017-03-01T04:55:43.091Z,0
2017-03-01T04:56:52.864Z,0
2017-03-01T04:58:03.057Z,0
2017-03-01T04:59:13.704Z,0
2017-03-01T05:00:23.881Z,0
2017-03-01T05:01:34.125Z,0
2017-03-01T05:02:43.878Z,0
2017-03-01T05:03:53.648Z,0
2017-03-01T05:05:03.834Z,0
2017-03-01T05:06:13.582Z,0
2017-03-01T05:07:23.828Z,0
2017-03-01T05:08:33.576Z,0
2017-03-01T05:09:43.333Z,0
2017-03-01T05:10:53.958Z,0
2017-03-01T05:12:03.709Z,0
2017-03-01T05:13:14.054Z,0
2017-03-01T05:14:24.266Z,0
2017-03-01T05:15:34.485Z,0
2017-03-01T05:16:44.236Z,0
2017-03-01T05:17:54.423Z,0
2017-03-01T05:19:03.780Z,0
2017-03-01T05:20:13.985Z,0
2017-03-01T05:21:23.717Z,0
2017-03-01T05:22:33.910Z,0
2017-03-01T05:23:44.115Z,0
2017-03-01T05:24:54.338Z,0
2017-03-01T05:26:04.531Z,0
2017-03-01T05:27:15.145Z,0
2017-03-01T05:28:25.767Z,0
2017-03-01T05:29:35.957Z,0
2017-03-01T05:30:46.199Z,0
2017-03-01T05:31:56.393Z,0
2017-03-01T05:33:05.706Z,0
2017-03-01T05:34:15.894Z,0
2017-03-01T05:35:27.372Z,0
2017-03-01T05:36:37.316Z,0
2017-03-01T05:37:47.524Z,0
2017-03-01T05:38:57.268Z,0
2017-03-01T05:40:07.458Z,0
2017-03-01T05:41:16.777Z,0
2017-03-01T05:42:27.008Z,0
2017-03-01T05:43:36.739Z,0
2017-03-01T05:44:46.481Z,4
2017-03-01T05:45:56.663Z,4
2017-03-01T05:47:06.859Z,4
2017-03-01T05:48:17.540Z,0
2017-03-01T05:49:27.741Z,4
2017-03-01T05:50:37.490Z,4
2017-03-01T05:51:47.245Z,8
2017-03-01T05:52:57.426Z,4
2017-03-01T05:54:06.824Z,8
2017-03-01T05:55:16.567Z,12
2017-03-01T05:56:26.326Z,8
2017-03-01T05:57:36.067Z,12
2017-03-01T05:58:45.405Z,16
2017-03-01T05:59:55.194Z,16
2017-03-01T06:01:04.938Z,16
2017-03-01T06:02:16.012Z,20
2017-03-01T06:03:25.768Z,28
2017-03-01T06:04:35.519Z,28
2017-03-01T06:05:45.324Z,36
2017-03-01T06:06:55.073Z,36
2017-03-01T06:08:04.405Z,52
2017-03-01T06:09:15.459Z,44
2017-03-01T06:10:24.788Z,52
2017-03-01T06:11:34.604Z,64
2017-03-01T06:12:44.357Z,72
2017-03-01T06:13:54.972Z,80
2017-03-01T06:15:05.173Z,88
2017-03-01T06:16:14.954Z,108
2017-03-01T06:17:25.630Z,140
2017-03-01T06:18:35.813Z,148
2017-03-01T06:19:46.013Z,160
2017-03-01T06:20:56.206Z,160
2017-03-01T06:22:05.952Z,176
2017-03-01T06:23:15.741Z,168
2017-03-01T06:24:25.487Z,196
2017-03-01T06:25:35.264Z,180
2017-03-01T06:26:45.449Z,168
2017-03-01T06:27:55.641Z,172
2017-03-01T06:29:05.608Z,168
2017-03-01T06:30:15.353Z,184
2017-03-01T06:31:24.686Z,188
2017-03-01T06:32:34.457Z,180
2017-03-01T06:33:44.636Z,216
2017-03-01T06:34:54.458Z,252
2017-03-01T06:36:04.201Z,272
2017-03-01T06:37:14.388Z,288
2017-03-01T06:38:24.144Z,300
2017-03-01T06:39:34.338Z,320
2017-03-01T06:40:44.598Z,320
2017-03-01T06:41:54.833Z,324
2017-03-01T06:43:04.598Z,340
2017-03-01T06:44:13.935Z,328
2017-03-01T06:45:23.688Z,284
2017-03-01T06:46:33.477Z,252
2017-03-01T06:47:43.663Z,256
2017-03-01T06:48:53.418Z,332
2017-03-01T06:50:02.724Z,392
2017-03-01T06:51:12.902Z,444
2017-03-01T06:52:22.706Z,528
2017-03-01T06:53:32.037Z,596
2017-03-01T06:54:41.804Z,568
2017-03-01T06:55:51.559Z,700
2017-03-01T06:57:02.171Z,820
2017-03-01T06:58:11.981Z,920
2017-03-01T06:59:22.151Z,1016
2017-03-01T07:00:32.334Z,1080
2017-03-01T07:01:43.397Z,1248
2017-03-01T07:02:53.593Z,1464
2017-03-01T07:04:03.863Z,1612
2017-03-01T07:05:14.039Z,1820
2017-03-01T07:06:24.231Z,2096
2017-03-01T07:07:34.431Z,2036
2017-03-01T07:08:43.748Z,2112
2017-03-01T07:09:54.857Z,2160
2017-03-01T07:11:04.183Z,2332
2017-03-01T07:12:14.796Z,2140
2017-03-01T07:13:24.968Z,2008
2017-03-01T07:14:35.166Z,1828
2017-03-01T07:15:44.958Z,1512
2017-03-01T07:16:54.705Z,1216
2017-03-01T07:18:05.346Z,924
2017-03-01T07:19:15.555Z,828
2017-03-01T07:20:25.295Z,700
2017-03-01T07:21:35.556Z,628
2017-03-01T07:22:46.607Z,580
2017-03-01T07:23:56.792Z,660
2017-03-01T07:25:06.996Z,796
2017-03-01T07:26:17.630Z,1004
2017-03-01T07:27:27.870Z,1268
2017-03-01T07:28:38.065Z,1548
2017-03-01T07:29:47.844Z,1588
2017-03-01T07:30:58.035Z,1508
2017-03-01T07:32:08.227Z,1292
2017-03-01T07:33:18.616Z,1180
2017-03-01T07:34:29.261Z,1120
2017-03-01T07:35:39.463Z,1072
2017-03-01T07:36:48.828Z,1040
2017-03-01T07:37:59.026Z,1044
2017-03-01T07:39:09.303Z,960
2017-03-01T07:40:19.499Z,924
2017-03-01T07:41:30.205Z,956
2017-03-01T07:42:42.715Z,1032
2017-03-01T07:43:54.616Z,1064
2017-03-01T07:45:06.490Z,1136
2017-03-01T07:46:16.561Z,1228
2017-03-01T07:47:26.754Z,1260
2017-03-01T07:48:37.336Z,1272
2017-03-01T07:49:49.593Z,1244
2017-03-01T07:51:00.967Z,1200
2017-03-01T07:52:13.459Z,1056
2017-03-01T07:53:24.784Z,1012
2017-03-01T07:54:35.647Z,1096
2017-03-01T07:55:47.499Z,1096
2017-03-01T07:56:59.036Z,936
2017-03-01T07:58:10.517Z,832
2017-03-01T07:59:21.971Z,780
2017-03-01T08:00:31.725Z,840
2017-03-01T08:01:41.473Z,908
2017-03-01T08:02:51.706Z,1124
2017-03-01T08:04:01.884Z,1468
2017-03-01T08:05:12.508Z,1700
2017-03-01T08:06:22.687Z,1972
2017-03-01T08:07:32.864Z,2384
2017-03-01T08:08:42.230Z,2816
2017-03-01T08:09:52.446Z,3060
2017-03-01T08:11:02.647Z,2752
2017-03-01T08:12:13.277Z,2588
2017-03-01T08:13:23.061Z,2528
2017-03-01T08:14:34.178Z,2576
2017-03-01T08:15:43.931Z,2380
2017-03-01T08:16:54.572Z,2064
2017-03-01T08:18:04.749Z,1856
2017-03-01T08:19:14.935Z,1744
2017-03-01T08:20:25.160Z,1752
2017-03-01T08:21:35.339Z,1760
2017-03-01T08:22:45.966Z,1616
2017-03-01T08:23:56.620Z,1632
2017-03-01T08:25:07.694Z,1476
2017-03-01T08:26:17.055Z,1460
2017-03-01T08:27:27.229Z,1212
2017-03-01T08:28:37.432Z,1060
2017-03-01T08:29:47.635Z,940
2017-03-01T08:30:58.255Z,912
2017-03-01T08:32:08.052Z,1108
2017-03-01T08:33:18.233Z,1092
2017-03-01T08:34:27.998Z,1068
2017-03-01T08:35:38.193Z,1068
2017-03-01T08:36:47.954Z,1236
2017-03-01T08:37:57.754Z,1436
2017-03-01T08:39:08.805Z,1668
2017-03-01T08:40:18.998Z,1792
2017-03-01T08:41:28.751Z,1964
2017-03-01T08:42:38.505Z,2124
2017-03-01T08:43:48.314Z,2156
2017-03-01T08:44:58.118Z,2056
2017-03-01T08:46:08.748Z,2204
2017-03-01T08:47:18.933Z,2804
2017-03-01T08:48:29.109Z,3344
2017-03-01T08:49:39.802Z,3052
2017-03-01T08:50:50.001Z,3432
2017-03-01T08:52:00.204Z,2996
2017-03-01T08:53:09.947Z,3032
2017-03-01T08:54:19.271Z,2808
2017-03-01T08:55:29.950Z,3492
2017-03-01T08:56:40.581Z,2872
2017-03-01T08:57:51.643Z,2760
2017-03-01T08:59:00.971Z,2336
2017-03-01T09:00:11.622Z,2344
2017-03-01T09:01:21.439Z,2524
2017-03-01T09:02:32.077Z,2620
2017-03-01T09:03:41.389Z,2672
2017-03-01T09:04:51.143Z,3284
2017-03-01T09:06:00.901Z,3316
2017-03-01T09:07:10.706Z,3284
2017-03-01T09:08:20.465Z,3504
2017-03-01T09:09:31.102Z,4496
2017-03-01T09:10:41.313Z,4300
2017-03-01T09:11:51.497Z,4008
2017-03-01T09:13:01.726Z,4480
2017-03-01T09:14:11.484Z,5532
2017-03-01T09:15:22.124Z,7020
2017-03-01T09:16:33.634Z,4320
2017-03-01T09:17:44.715Z,4220
2017-03-01T09:18:54.946Z,4632
2017-03-01T09:20:04.259Z,4000
2017-03-01T09:21:14.483Z,4632
2017-03-01T09:22:25.098Z,5140
2017-03-01T09:23:34.435Z,6608
2017-03-01T09:24:44.694Z,8172
2017-03-01T09:25:55.315Z,7956
2017-03-01T09:27:05.962Z,5924
2017-03-01T09:28:16.145Z,7148
2017-03-01T09:29:25.903Z,5632
2017-03-01T09:30:36.140Z,4380
2017-03-01T09:31:46.355Z,3020
2017-03-01T09:32:55.668Z,3044
2017-03-01T09:34:05.854Z,2456
2017-03-01T09:35:16.934Z,2352
2017-03-01T09:36:26.291Z,1924
2017-03-01T09:37:36.067Z,1864
2017-03-01T09:38:46.710Z,2068
2017-03-01T09:39:56.462Z,2068
2017-03-01T09:41:07.128Z,1980
2017-03-01T09:42:16.949Z,3472
2017-03-01T09:43:27.123Z,4292
2017-03-01T09:44:36.871Z,3980
2017-03-01T09:45:46.671Z,4608
2017-03-01T09:46:56.438Z,3472
2017-03-01T09:48:06.387Z,3436
2017-03-01T09:49:15.697Z,3648
2017-03-01T09:50:26.773Z,4732
2017-03-01T09:51:36.961Z,6588
2017-03-01T09:52:46.264Z,8312
2017-03-01T09:53:56.201Z,7996
2017-03-01T09:55:06.410Z,8836
2017-03-01T09:56:16.608Z,9396
2017-03-01T09:57:26.347Z,9280
2017-03-01T09:58:36.982Z,7224
2017-03-01T09:59:46.774Z,6868
2017-03-01T10:00:56.536Z,7084
2017-03-01T10:02:06.713Z,7224
2017-03-01T10:03:17.342Z,6432
2017-03-01T10:04:27.546Z,6684
2017-03-01T10:05:38.663Z,5680
2017-03-01T10:06:48.430Z,6064
2017-03-01T10:07:58.628Z,5888
2017-03-01T10:09:08.816Z,4052
2017-03-01T10:10:18.572Z,4248
2017-03-01T10:11:29.257Z,3716
2017-03-01T10:12:39.037Z,3920
2017-03-01T10:13:49.237Z,4684
2017-03-01T10:14:59.423Z,3452
2017-03-01T10:16:09.190Z,2924
2017-03-01T10:17:19.853Z,3096
2017-03-01T10:18:30.054Z,3116
2017-03-01T10:19:39.375Z,2916
2017-03-01T10:20:49.131Z,4216
2017-03-01T10:22:00.186Z,3508
2017-03-01T10:23:10.455Z,4528
2017-03-01T10:24:20.260Z,2720
2017-03-01T10:25:30.872Z,3868
2017-03-01T10:26:40.614Z,6092
2017-03-01T10:27:49.938Z,4092
2017-03-01T10:28:59.773Z,5276
2017-03-01T10:30:09.970Z,4524
2017-03-01T10:31:19.309Z,4616
2017-03-01T10:32:29.927Z,4208
2017-03-01T10:33:39.276Z,4132
2017-03-01T10:34:50.406Z,3832
2017-03-01T10:36:00.160Z,3648
2017-03-01T10:37:10.344Z,4156
2017-03-01T10:38:19.648Z,4360
2017-03-01T10:39:29.421Z,4940
2017-03-01T10:40:38.768Z,5204
2017-03-01T10:41:48.948Z,5468
2017-03-01T10:42:59.129Z,5940
2017-03-01T10:44:09.319Z,4852
2017-03-01T10:45:19.077Z,3736
2017-03-01T10:46:28.881Z,4068
2017-03-01T10:47:38.664Z,3640
2017-03-01T10:48:48.399Z,2688
2017-03-01T10:49:59.488Z,2644
2017-03-01T10:51:10.103Z,2880
2017-03-01T10:52:20.350Z,3580
2017-03-01T10:53:30.989Z,4380
2017-03-01T10:54:40.341Z,5656
2017-03-01T10:55:50.534Z,5960
2017-03-01T10:57:00.725Z,4152
2017-03-01T10:58:10.964Z,4996
2017-03-01T10:59:21.594Z,5932
2017-03-01T11:00:31.400Z,5816
2017-03-01T11:01:40.737Z,3204
2017-03-01T11:02:50.934Z,3116
2017-03-01T11:04:01.192Z,2824
2017-03-01T11:05:10.523Z,2488
2017-03-01T11:06:21.161Z,2240
2017-03-01T11:07:31.377Z,3260
2017-03-01T11:08:42.506Z,4076
2017-03-01T11:09:51.861Z,2876
2017-03-01T11:11:01.621Z,2888
2017-03-01T11:12:11.375Z,2568
2017-03-01T11:13:21.567Z,2476
2017-03-01T11:14:31.740Z,2352
2017-03-01T11:15:42.417Z,2820
2017-03-01T11:16:53.042Z,2960
2017-03-01T11:18:03.685Z,2840
2017-03-01T11:19:12.994Z,2828
2017-03-01T11:20:23.182Z,2856
2017-03-01T11:21:34.304Z,2520
2017-03-01T11:22:44.060Z,2264
2017-03-01T11:23:53.795Z,3076
2017-03-01T11:25:03.548Z,2248
2017-03-01T11:26:12.865Z,3268
2017-03-01T11:27:22.409Z,2820
2017-03-01T11:28:33.055Z,3084
2017-03-01T11:29:42.811Z,1556
2017-03-01T11:30:53.002Z,2228
2017-03-01T11:32:02.321Z,2696
2017-03-01T11:33:12.148Z,1600
2017-03-01T11:34:21.913Z,2096
2017-03-01T11:35:32.537Z,3004
2017-03-01T11:36:42.730Z,3724
2017-03-01T11:37:52.045Z,2736
2017-03-01T11:39:01.874Z,2296
2017-03-01T11:40:11.610Z,2252
2017-03-01T11:41:22.256Z,1704
2017-03-01T11:42:32.034Z,1844
2017-03-01T11:43:41.796Z,2232
2017-03-01T11:44:52.024Z,2924
2017-03-01T11:46:01.773Z,4148
2017-03-01T11:47:11.977Z,5904
2017-03-01T11:48:21.729Z,3160
2017-03-01T11:49:31.940Z,4396
2017-03-01T11:50:41.749Z,3388
2017-03-01T11:51:51.071Z,3376
2017-03-01T11:53:00.834Z,2916
2017-03-01T11:54:11.479Z,2072
2017-03-01T11:55:22.124Z,2868
2017-03-01T11:56:32.794Z,3676
2017-03-01T11:57:42.128Z,4684
2017-03-01T11:58:51.905Z,2464
2017-03-01T12:00:01.637Z,1572
2017-03-01T12:01:11.816Z,1544
2017-03-01T12:02:21.653Z,2068
2017-03-01T12:03:31.393Z,1076
2017-03-01T12:04:41.159Z,1456
2017-03-01T12:05:50.920Z,1936
2017-03-01T12:07:01.096Z,2912
2017-03-01T12:08:11.345Z,3044
2017-03-01T12:09:21.122Z,3400
2017-03-01T12:10:31.749Z,2896
2017-03-01T12:11:41.934Z,3956
2017-03-01T12:12:52.122Z,5308
2017-03-01T12:14:01.941Z,6080
2017-03-01T12:15:12.562Z,5700
2017-03-01T12:16:21.901Z,4180
2017-03-01T12:17:32.527Z,4224
2017-03-01T12:18:42.271Z,3684
2017-03-01T12:19:51.637Z,3428
2017-03-01T12:21:01.399Z,3840
2017-03-01T12:22:11.632Z,4448
2017-03-01T12:23:21.818Z,4500
2017-03-01T12:24:32.009Z,3180
2017-03-01T12:25:42.771Z,3000
2017-03-01T12:26:52.957Z,3696
2017-03-01T12:28:03.145Z,3176
2017-03-01T12:29:12.887Z,3280
2017-03-01T12:30:23.075Z,3968
2017-03-01T12:31:32.434Z,4008
2017-03-01T12:32:42.198Z,3316
2017-03-01T12:33:53.262Z,2548
2017-03-01T12:35:03.871Z,2224
2017-03-01T12:36:14.090Z,1900
2017-03-01T12:37:23.899Z,1932
2017-03-01T12:38:33.671Z,1628
2017-03-01T12:39:44.718Z,1644
2017-03-01T12:40:54.477Z,1640
2017-03-01T12:42:05.551Z,1832
2017-03-01T12:43:15.776Z,1812
2017-03-01T12:44:25.969Z,1800
2017-03-01T12:45:36.165Z,2036
2017-03-01T12:46:45.924Z,2400
2017-03-01T12:47:56.560Z,4016
2017-03-01T12:49:06.788Z,4252
2017-03-01T12:50:16.549Z,4988
2017-03-01T12:51:26.301Z,4384
2017-03-01T12:52:36.042Z,4020
2017-03-01T12:53:46.692Z,7044
2017-03-01T12:54:56.508Z,7088
2017-03-01T12:56:07.591Z,6196
2017-03-01T12:57:17.342Z,4768
2017-03-01T12:58:27.976Z,5864
2017-03-01T12:59:37.283Z,4560
2017-03-01T13:00:47.075Z,4616
2017-03-01T13:01:56.409Z,4444
2017-03-01T13:03:05.709Z,3696
2017-03-01T13:04:16.775Z,4212
2017-03-01T13:05:26.525Z,3020
2017-03-01T13:06:36.772Z,3352
2017-03-01T13:07:46.983Z,2848
2017-03-01T13:08:57.608Z,1324
2017-03-01T13:10:07.801Z,1420
2017-03-01T13:11:17.106Z,1404
2017-03-01T13:12:27.343Z,1352
2017-03-01T13:13:37.099Z,1804
2017-03-01T13:14:47.273Z,1836
2017-03-01T13:15:57.031Z,1128
2017-03-01T13:17:06.839Z,960
2017-03-01T13:18:16.646Z,884
2017-03-01T13:19:26.853Z,860
2017-03-01T13:20:37.070Z,828
2017-03-01T13:21:47.255Z,1484
2017-03-01T13:22:57.004Z,1364
2017-03-01T13:24:07.257Z,1460
2017-03-01T13:25:17.457Z,1860
2017-03-01T13:26:26.769Z,1876
2017-03-01T13:27:36.939Z,1856
2017-03-01T13:28:47.123Z,2236
2017-03-01T13:29:56.917Z,3464
2017-03-01T13:31:06.674Z,4148
2017-03-01T13:32:16.875Z,3244
2017-03-01T13:33:27.075Z,1888
2017-03-01T13:34:37.692Z,1848
2017-03-01T13:35:47.927Z,1712
2017-03-01T13:36:57.666Z,2052
2017-03-01T13:38:08.287Z,2396
2017-03-01T13:39:18.466Z,2288
2017-03-01T13:40:28.221Z,2296
2017-03-01T13:41:42.620Z,2812
2017-03-01T13:42:52.376Z,2780
2017-03-01T13:44:02.558Z,3452
2017-03-01T13:45:13.199Z,5112
2017-03-01T13:46:23.824Z,3784
2017-03-01T13:47:34.073Z,2068
2017-03-01T13:48:44.715Z,1876
2017-03-01T13:49:54.481Z,1960
2017-03-01T13:51:04.653Z,2408
2017-03-01T13:52:14.838Z,2724
2017-03-01T13:53:24.628Z,2304
2017-03-01T13:54:34.816Z,2500
2017-03-01T13:55:44.565Z,3032
2017-03-01T13:56:54.754Z,2816
2017-03-01T13:58:04.977Z,2136
2017-03-01T13:59:15.226Z,2764
2017-03-01T14:00:24.980Z,2544
2017-03-01T14:01:35.165Z,2168
2017-03-01T14:02:44.492Z,1984
2017-03-01T14:03:54.674Z,2064
2017-03-01T14:05:04.903Z,1864
2017-03-01T14:06:15.125Z,2236
2017-03-01T14:07:24.887Z,3248
2017-03-01T14:08:35.074Z,3044
2017-03-01T14:09:45.276Z,4184
2017-03-01T14:10:55.070Z,3780
2017-03-01T14:12:04.431Z,3780
2017-03-01T14:13:13.760Z,3240
2017-03-01T14:14:23.095Z,3196
2017-03-01T14:15:32.430Z,3980
2017-03-01T14:16:41.793Z,3932
2017-03-01T14:17:51.120Z,2900
2017-03-01T14:19:01.761Z,3300
2017-03-01T14:20:11.955Z,3584
2017-03-01T14:21:22.184Z,3664
2017-03-01T14:22:32.863Z,3312
2017-03-01T14:23:42.194Z,3136
2017-03-01T14:24:52.365Z,3136
2017-03-01T14:26:02.129Z,2952
2017-03-01T14:27:12.766Z,2368
2017-03-01T14:28:23.887Z,2276
2017-03-01T14:29:34.082Z,1348
2017-03-01T14:30:43.866Z,1212
2017-03-01T14:31:54.055Z,1212
2017-03-01T14:33:04.276Z,868
2017-03-01T14:34:15.391Z,940
2017-03-01T14:35:24.728Z,1052
2017-03-01T14:36:34.908Z,1620
2017-03-01T14:37:45.561Z,1660
2017-03-01T14:38:55.316Z,1672
2017-03-01T14:40:05.548Z,1908
2017-03-01T14:41:16.222Z,2088
2017-03-01T14:42:26.174Z,1720
2017-03-01T14:43:36.821Z,1924
2017-03-01T14:44:46.596Z,1388
2017-03-01T14:45:57.272Z,1296
2017-03-01T14:47:07.035Z,1316
2017-03-01T14:48:16.785Z,1952
2017-03-01T14:49:27.870Z,1328
2017-03-01T14:50:37.615Z,1344
2017-03-01T14:51:47.420Z,1600
2017-03-01T14:52:57.623Z,1600
2017-03-01T14:54:07.391Z,1268
2017-03-01T14:55:17.141Z,1392
2017-03-01T14:56:27.787Z,1644
2017-03-01T14:57:37.582Z,2308
2017-03-01T14:58:47.767Z,2988
2017-03-01T14:59:57.949Z,2692
2017-03-01T15:01:09.000Z,2536
2017-03-01T15:02:18.785Z,2824
2017-03-01T15:03:29.024Z,2568
2017-03-01T15:04:39.218Z,2148
2017-03-01T15:05:49.417Z,1904
2017-03-01T15:06:59.604Z,2180
2017-03-01T15:08:10.223Z,2136
2017-03-01T15:09:20.896Z,2472
2017-03-01T15:10:31.542Z,2648
2017-03-01T15:11:41.298Z,2600
2017-03-01T15:12:51.512Z,2388
2017-03-01T15:14:01.271Z,2128
2017-03-01T15:15:11.965Z,2180
2017-03-01T15:16:21.716Z,2188
2017-03-01T15:17:31.481Z,2564
2017-03-01T15:18:41.234Z,2932
2017-03-01T15:19:50.550Z,2388
2017-03-01T15:21:00.813Z,1904
2017-03-01T15:22:10.556Z,1424
2017-03-01T15:23:20.303Z,1228
2017-03-01T15:24:29.619Z,1160
2017-03-01T15:25:40.266Z,1264
2017-03-01T15:26:50.115Z,1492
2017-03-01T15:27:59.432Z,1936
2017-03-01T15:29:09.645Z,1928
2017-03-01T15:30:19.411Z,1736
2017-03-01T15:31:29.620Z,1304
2017-03-01T15:32:40.292Z,1292
2017-03-01T15:33:50.466Z,1064
2017-03-01T15:35:00.218Z,952
2017-03-01T15:36:10.859Z,916
2017-03-01T15:37:20.614Z,912
2017-03-01T15:38:30.078Z,908
2017-03-01T15:39:39.387Z,840
2017-03-01T15:40:49.154Z,820
2017-03-01T15:41:58.457Z,800
2017-03-01T15:43:08.258Z,768
2017-03-01T15:44:18.523Z,756
2017-03-01T15:45:29.145Z,784
2017-03-01T15:46:38.916Z,928
2017-03-01T15:47:49.931Z,1164
2017-03-01T15:49:01.348Z,964
2017-03-01T15:50:12.395Z,780
2017-03-01T15:51:22.855Z,968
2017-03-01T15:52:34.777Z,1044
2017-03-01T15:53:45.905Z,852
2017-03-01T15:54:57.814Z,772
2017-03-01T15:56:09.684Z,804
2017-03-01T15:57:20.128Z,688
2017-03-01T15:58:33.406Z,700
2017-03-01T15:59:43.804Z,572
2017-03-01T16:00:54.550Z,396
2017-03-01T16:02:10.467Z,264
2017-03-01T16:03:23.276Z,172
2017-03-01T16:04:33.602Z,184
2017-03-01T16:05:44.797Z,176
2017-03-01T16:06:55.551Z,196
2017-03-01T16:08:05.352Z,192
2017-03-01T16:09:16.203Z,184
2017-03-01T16:10:26.820Z,172
2017-03-01T16:11:37.051Z,144
2017-03-01T16:12:47.920Z,184